• Join FlightAware (Why Join?)
  • Login
  • US Flag 
10:52AM EDT


 

Airport Tracker/Info


-or-


 

Live Flight TrackerFlight Track Log ✈ CPZ5750 ✈ 03-Jul-2013 ✈ KALB - KMSP

Flight Track Log - Related Links

Times and Time Zones

All times are in EDT time to prevent confusion due to time zone crossing. See the CPZ5750 flight status page for this flight to view local times or setup timezone preferences in your user account.

Time Position Orientation Groundspeed Altitude Reporting Facility
EDT Latitude Longitude Course Direction KTS MPH feet Rate Location/Type
07:52PM 42.6983 -73.8356 222° Southwest 186 214 2,500  Level Boston Center
07:54PM 42.8391 -74.3675 283° West  Level FlightAware Approximate
07:54PM 42.7847 -73.9225 324° Northwest 260 299 6,200  Level Boston Center
07:55PM 42.8631 -74.5120 283° West  Level FlightAware Approximate
07:55PM 42.8464 -73.9778 327° Northwest 266 306 9,400  Level Boston Center
07:56PM 42.8966 -74.6464 281° West  Level FlightAware Approximate
07:56PM 42.9231 -74.0194 338° Northwest 266 306 12,100  Level Boston Center
07:57PM 42.9165 -74.7922 281° West  Level FlightAware Approximate
07:57PM 42.9936 -74.0325 352° North 278 320 14,000  Level Boston Center
07:58PM 43.0508 -74.1250 310° West 278 320 15,700 1,200 Climbing Boston Center
07:59PM 43.0572 -74.2358 275° West 278 320 16,500 1,140 Climbing Boston Center
08:00PM 43.0675 -74.3869 275° West 346 398 18,000 1,620 Climbing Boston Center
08:01PM 43.0733 -74.5264 273° West 370 426 19,800 1,740 Climbing Boston Center
08:02PM 43.0808 -74.6689 274° West 370 426 21,500 1,500 Climbing Boston Center
08:03PM 43.0906 -74.8142 275° West 375 432 22,900 1,380 Climbing Boston Center
08:04PM 43.0978 -74.9567 274° West 381 438 24,300 1,380 Climbing Boston Center
08:05PM 43.1069 -75.1050 275° West 387 445 25,700 1,140 Climbing Boston Center
08:06PM 43.1139 -75.2531 274° West 387 445 26,600 900 Climbing Boston Center
08:07PM 43.1203 -75.4072 273° West 393 452 27,600 780 Climbing Boston Center
08:08PM 43.1292 -75.5442 275° West 399 459 28,200 780 Climbing Boston Center
08:09PM 43.1394 -75.7011 275° West 410 472 29,200 1,020 Climbing Boston Center
08:10PM 43.1872 -75.8489 294° West 410 472 30,300 1,080 Climbing Boston Center
08:11PM 43.2372 -75.9858 297° West 410 472 31,400 900 Climbing Boston Center
08:12PM 43.2872 -76.1228 297° West 410 472 32,200 780 Climbing Boston Center
08:13PM 43.3389 -76.2658 296° West 410 472 33,000 900 Climbing Boston Center
08:14PM 43.3861 -76.4031 295° West 410 472 34,000 480 Climbing Boston Center
08:15PM 43.4378 -76.5411 297° West 410 472 34,000  Level Boston Center
08:16PM 43.4861 -76.6961 293° West 410 472 34,000  Level Boston Center
08:17PM 43.5353 -76.8342 296° West 410 472 34,000  Level Boston Center
08:19PM 43.6333 -77.1167 296° West 400 460 34,000  Level Toronto Center
08:20PM 43.6833 -77.2833 293° West 410 472 34,000  Level Toronto Center
08:21PM 43.7333 -77.4167 297° West 410 472 34,000  Level Toronto Center
08:22PM 43.7833 -77.5500 297° West 410 472 34,000  Level Toronto Center
08:23PM 43.8333 -77.7167 293° West 410 472 34,000  Level Toronto Center
08:24PM 43.8667 -77.8500 289° West 410 472 34,000  Level Toronto Center
08:25PM 43.9167 -77.9833 298° West 410 472 34,000  Level Toronto Center
08:26PM 43.9667 -78.1333 295° West 410 472 34,000  Level Toronto Center
08:27PM 44.0167 -78.2833 295° West 420 483 34,000  Level Toronto Center
08:28PM 44.0500 -78.4333 287° West 410 472 34,000  Level Toronto Center
08:29PM 44.1167 -78.5667 305° West 410 472 34,000  Level Toronto Center
08:30PM 44.1667 -78.7000 298° West 410 472 34,000  Level Toronto Center
08:31PM 44.2000 -78.8667 286° West 410 472 34,000  Level Toronto Center
08:32PM 44.2500 -79.0000 298° West 410 472 34,000  Level Toronto Center
08:33PM 44.3000 -79.1500 295° West 410 472 34,000  Level Toronto Center
08:34PM 44.3167 -79.3000 279° West 400 460 34,000  Level Toronto Center
08:35PM 44.3333 -79.4500 279° West 390 449 34,000  Level Toronto Center
08:36PM 44.3333 -79.6167 270° West 390 449 34,000  Level Toronto Center
08:37PM 44.3500 -79.7500 280° West 390 449 34,000  Level Toronto Center
08:38PM 44.3500 -79.9167 270° West 390 449 34,000  Level Toronto Center
08:39PM 44.3667 -80.0500 280° West 390 449 34,000  Level Toronto Center
08:40PM 44.3667 -80.2000 270° West 390 449 34,000  Level Toronto Center
08:41PM 44.3833 -80.3500 279° West 390 449 34,000  Level Toronto Center
08:42PM 44.3833 -80.5000 270° West 390 449 34,000  Level Toronto Center
08:43PM 44.4000 -80.6667 278° West 390 449 34,000  Level Toronto Center
08:44PM 44.4167 -80.8000 280° West 390 449 34,000  Level Toronto Center
08:45PM 44.4000 -80.9667 262° West 390 449 34,000  Level Toronto Center
08:46PM 44.4167 -81.1000 280° West 390 449 34,000  Level Toronto Center
08:47PM 44.4167 -81.2667 270° West 390 449 34,000 480 Level Toronto Center
08:48PM 44.4333 -81.4000 280° West 400 460 35,000 960 Climbing Toronto Center
08:49PM 44.4333 -81.5500 270° West 380 437 36,000 480 Climbing Toronto Center
08:50PM 44.4500 -81.7167 278° West 370 426 36,000  Level Toronto Center
08:51PM 44.4500 -81.8500 270° West 370 426 36,000  Level Toronto Center
08:52PM 44.4500 -82.0000 270° West 370 426 36,000  Level Toronto Center
08:53PM 44.4667 -82.1333 280° West 370 426 36,000  Level Toronto Center
08:54PM 44.4667 -82.2667 270° West 380 437 36,000  Level Toronto Center
08:55PM 44.4833 -82.4333 278° West 370 426 36,000  Level Toronto Center
08:56PM 44.4872 -82.5036 274° West 372 428 36,000  Level Minneapolis Center
08:57PM 44.4908 -82.6467 272° West 371 427 36,000  Level Minneapolis Center
08:58PM 44.4972 -82.7906 274° West 371 427 36,000  Level Minneapolis Center
08:59PM 44.5028 -82.9928 272° West 372 428 36,000  Level Minneapolis Center
09:00PM 44.5078 -83.1381 273° West 373 429 36,000  Level Minneapolis Center
09:01PM 44.5131 -83.2814 273° West 371 427 36,000  Level Minneapolis Center
09:02PM 44.5169 -83.4225 272° West 366 421 36,000  Level Minneapolis Center
09:03PM 44.5206 -83.5633 272° West 364 419 36,000  Level Minneapolis Center
09:04PM 44.5250 -83.7333 272° West 364 419 36,000  Level Minneapolis Center
09:05PM 44.5308 -83.9025 273° West 365 420 36,000  Level Minneapolis Center
09:06PM 44.5331 -84.0169 272° West 365 420 36,000  Level Minneapolis Center
09:08PM 44.5369 -84.1881 272° West 367 422 36,000  Level Minneapolis Center
09:09PM 44.5397 -84.3308 272° West 367 422 36,000  Level Minneapolis Center
09:10PM 44.5431 -84.4744 272° West 369 425 36,000  Level Minneapolis Center
09:11PM 44.5453 -84.6181 271° West 370 426 36,000  Level Minneapolis Center
09:12PM 44.5492 -84.7897 272° West 369 425 36,000  Level Minneapolis Center
09:13PM 44.5511 -84.9328 271° West 369 425 36,000  Level Minneapolis Center
09:14PM 44.5531 -85.0758 271° West 367 422 36,000  Level Minneapolis Center
09:15PM 44.5553 -85.2200 271° West 371 427 36,000  Level Minneapolis Center
09:16PM 44.5575 -85.3650 271° West 372 428 36,000  Level Minneapolis Center
09:17PM 44.5597 -85.5392 271° West 372 428 36,000  Level Minneapolis Center
09:18PM 44.5608 -85.7158 271° West 377 434 36,000  Level Minneapolis Center
09:19PM 44.5614 -85.8647 270° West 379 436 36,000  Level Minneapolis Center
09:20PM 44.5622 -86.0122 271° West 377 434 36,000  Level Minneapolis Center
09:21PM 44.5625 -86.1614 270° West 378 435 36,000  Level Minneapolis Center
09:22PM 44.5633 -86.3092 271° West 377 434 36,000  Level Minneapolis Center
09:23PM 44.5636 -86.4544 270° West 373 429 36,000  Level Minneapolis Center
09:24PM 44.5642 -86.6011 270° West 375 432 36,000  Level Minneapolis Center
09:25PM 44.5639 -86.7458 270° West 373 429 36,000  Level Minneapolis Center
09:26PM 44.5631 -86.9222 270° West 375 432 36,000  Level Minneapolis Center
09:27PM 44.5639 -87.0389 271° West 376 433 36,000  Level Minneapolis Center
09:28PM 44.5636 -87.2147 270° West 376 433 36,000  Level Minneapolis Center
09:29PM 44.5697 -87.3653 273° West 382 440 36,000  Level Minneapolis Center
09:30PM 44.5869 -87.5158 279° West 389 448 36,000  Level Minneapolis Center
09:32PM 44.6011 -87.6681 277° West 392 451 36,000  Level Minneapolis Center
09:33PM 44.6186 -87.8567 277° West 404 465 36,000  Level Minneapolis Center
09:34PM 44.6331 -88.0117 278° West 410 472 36,000  Level Minneapolis Center
09:35PM 44.6486 -88.1775 278° West 424 488 36,000  Level Minneapolis Center
09:36PM 44.6633 -88.3400 277° West 422 486 36,000  Level Minneapolis Center
09:37PM 44.6817 -88.5603 277° West 428 493 36,000  Level Minneapolis Center
09:38PM 44.6961 -88.7275 277° West 432 497 36,000  Level Minneapolis Center
09:39PM 44.7103 -88.8986 277° West 439 505 36,000  Level Minneapolis Center
09:40PM 44.7250 -89.0686 277° West 440 506 36,000  Level Minneapolis Center
09:41PM 44.7383 -89.2400 276° West 441 507 36,000 -300 Level Minneapolis Center
09:42PM 44.7556 -89.4403 277° West 442 509 35,400 -720 Descending Minneapolis Center
09:43PM 44.7703 -89.6431 276° West 446 513 34,300 -1,020 Descending Minneapolis Center
09:44PM 44.7856 -89.8458 276° West 449 517 33,100 -1,140 Descending Minneapolis Center
09:46PM 44.8014 -90.0494 276° West 451 519 32,000 -540 Descending Minneapolis Center
09:47PM 44.8153 -90.2236 276° West 448 516 32,000  Level Minneapolis Center
09:48PM 44.8378 -90.4047 280° West 449 517 32,000  Level Minneapolis Center
09:49PM 44.8547 -90.5511 279° West 447 514 32,000  Level Minneapolis Center
09:50PM 44.8800 -90.7586 280° West 448 516 32,000 -180 Level Minneapolis Center
09:51PM 44.8989 -90.9217 279° West 450 518 31,700 -1,260 Descending Minneapolis Center
09:52PM 44.9214 -91.1289 279° West 448 516 29,200 -2,520 Descending Minneapolis Center
09:53PM 44.9411 -91.3000 279° West 446 513 26,500 -2,640 Descending Minneapolis Center
09:54PM 44.9594 -91.4647 279° West 435 501 23,900 -2,820 Descending Minneapolis Center
09:55PM 44.9794 -91.6544 279° West 416 479 20,800 -2,700 Descending Minneapolis Center
09:56PM 44.9969 -91.8075 279° West 404 465 18,400 -2,340 Descending Minneapolis Center
09:57PM 45.0142 -91.9569 279° West 386 444 16,100 -2,280 Descending Minneapolis Center
09:58PM 45.0297 -92.0997 279° West 371 427 13,800 -2,220 Descending Minneapolis Center
09:59PM 45.0433 -92.2383 278° West 360 414 11,600 -1,320 Descending Minneapolis Center
10:00PM 45.0364 -92.3711 266° West 348 400 11,100 -300 Descending Minneapolis Center
10:01PM 45.0150 -92.5033 257° West 347 399 11,000 -60 Descending Minneapolis Center
10:02PM 44.9908 -92.6611 258° West 346 398 11,000 -120 Level Minneapolis Center
10:03PM 44.9694 -92.7922 257° West 346 398 10,800 -540 Descending Minneapolis Center
10:04PM 44.9492 -92.9139 257° West 320 368 10,000 -1,320 Descending Minneapolis Center
10:05PM 44.9322 -93.0197 257° West 284 327 8,200 -1,200 Descending Minneapolis Center
10:06PM 44.9472 -93.1125 283° West 251 289 7,600 -1,320 Descending Minneapolis Center
10:07PM 44.9814 -93.1875 303° West 230 265 5,500 -1,800 Descending Minneapolis Center
10:08PM 45.0219 -93.2783 302° West 231 266 4,000 -1,080 Descending Minneapolis Center
10:09PM 44.9953 -93.3319 235° Southwest 216 249 3,400 -840 Descending Minneapolis Center
10:10PM 44.9447 -93.2983 155° Southeast 199 229 2,300 -960 Descending Minneapolis Center
10:11PM 44.9114 -93.2653 145° Southeast 144 166 1,500 -780 Descending Minneapolis Center